Check out our new BloomSky Weather System.

Active alerts


No alerts


Thunder radar  blitzortung!


Rain radar more information rain snow radar


Visit our other weather sites:

Template documentation
and downloads

And another site



Weather Underground History page Text

Daily Summary for January 22, 2018 Units:  English    Metric   Both
« Previous Day
Next Day »
Daily Weekly Monthly Yearly Custom
  High: Low: Average:
Temperature: TemperatureF °F 40.8 °F 58.6 °F
Dew Point: DewpointF °F 28.8 °F 40.4 °F
Humidity: Humidity % 26 % 55 %
Wind Speed: WindSpeedMPH mph 0.0 mph 3.2 mph
Wind Gust: WindSpeedGustMPH mph - -
Wind:- - WNW
Pressure: PressureIn in 29.87 in -
Precipitation: 0.00 in    
Historical Graphs
 
 
Tabular Data for January 22, 2018
Time Temperature Dew Point Pressure Wind Wind Speed Wind Gust Humidity Rainfall Rate (Hourly)
TemperatureF °F DewpointF °F PressureIn in Calm     Humidity % HourlyPrecipIn in
00:02 67.8 °F 66.9 °F 29.88 in SW 5.0 mph 7.0 mph 97 % 0.00 in
00:07 67.8 °F 66.9 °F 29.88 in SW 6.0 mph 7.0 mph 97 % 0.00 in
00:12 68.0 °F 67.1 °F 29.88 in SSW 6.0 mph 8.0 mph 97 % 0.00 in
00:17 68.2 °F 67.3 °F 29.87 in SSW 3.0 mph 9.0 mph 97 % 0.00 in
00:22 68.2 °F 67.3 °F 29.87 in SSW 4.0 mph 11.0 mph 97 % 0.00 in
00:27 68.2 °F 67.3 °F 29.87 in SSE 4.0 mph 11.0 mph 97 % 0.00 in
00:32 68.4 °F 67.5 °F 29.87 in SSW 6.0 mph 11.0 mph 97 % 0.00 in
00:37 68.4 °F 67.5 °F 29.87 in SW 8.0 mph 11.0 mph 97 % 0.00 in
00:42 68.4 °F 67.5 °F 29.87 in SW 5.0 mph 11.0 mph 97 % 0.00 in
00:47 68.5 °F 67.6 °F 29.87 in SSW 4.0 mph 11.0 mph 97 % 0.00 in
00:57 68.5 °F 67.3 °F 29.87 in SW 9.0 mph 11.0 mph 96 % 0.00 in
01:02 68.7 °F 67.5 °F 29.87 in SW 10.0 mph 15.0 mph 96 % 0.00 in
01:07 68.7 °F 67.5 °F 29.87 in SSW 5.0 mph 15.0 mph 96 % 0.00 in
01:22 68.9 °F 67.5 °F 29.87 in WSW 3.0 mph 16.0 mph 95 % 0.00 in
01:27 68.9 °F 67.5 °F 29.87 in SW 6.0 mph 13.0 mph 95 % 0.00 in
01:32 68.7 °F 67.3 °F 29.87 in SSE 5.0 mph 13.0 mph 95 % 0.00 in
01:42 68.7 °F 67.3 °F 29.87 in South 3.0 mph 9.0 mph 95 % 0.00 in
01:52 68.7 °F 67.3 °F 29.88 in WSW 5.0 mph 10.0 mph 95 % 0.00 in
01:57 68.7 °F 67.3 °F 29.88 in NW 1.0 mph 12.0 mph 95 % 0.00 in
02:12 68.7 °F 67.3 °F 29.88 in WSW 2.0 mph 8.0 mph 95 % 0.00 in
02:17 68.7 °F 67.3 °F 29.88 in SW 2.0 mph 8.0 mph 95 % 0.00 in
02:22 68.7 °F 67.3 °F 29.88 in WSW 2.0 mph 7.0 mph 95 % 0.00 in
02:27 68.7 °F 67.3 °F 29.88 in NW 1.0 mph 8.0 mph 95 % 0.00 in
02:37 68.7 °F 67.3 °F 29.89 in WSW 1.0 mph 8.0 mph 95 % 0.00 in
02:42 68.7 °F 67.3 °F 29.88 in SSW 3.0 mph 8.0 mph 95 % 0.00 in
02:47 68.7 °F 67.3 °F 29.88 in SW 2.0 mph 7.0 mph 95 % 0.00 in
02:52 68.7 °F 67.3 °F 29.88 in WSW 2.0 mph 8.0 mph 95 % 0.00 in
03:07 68.5 °F 67.1 °F 29.88 in SSW 1.0 mph 13.0 mph 95 % 0.00 in
03:12 68.5 °F 67.1 °F 29.88 in NNW 3.0 mph 13.0 mph 95 % 0.00 in
03:17 68.5 °F 67.1 °F 29.88 in West 2.0 mph 11.0 mph 95 % 0.00 in
03:22 68.4 °F 66.9 °F 29.88 in WSW 4.0 mph 11.0 mph 95 % 0.00 in
03:27 68.4 °F 66.9 °F 29.88 in Calm   11.0 mph 95 % 0.00 in
03:32 68.4 °F 66.9 °F 29.88 in Calm   6.0 mph 95 % 0.00 in
03:37 68.2 °F 66.7 °F 29.88 in Calm   6.0 mph 95 % 0.00 in
03:42 68.2 °F 66.7 °F 29.89 in Calm   5.0 mph 95 % 0.00 in
03:47 68.0 °F 66.7 °F 29.89 in WNW 1.0 mph 4.0 mph 96 % 0.00 in
03:52 67.8 °F 66.4 °F 29.89 in SW 1.0 mph 8.0 mph 95 % 0.00 in
03:57 67.3 °F 65.8 °F 29.89 in NE 2.0 mph 8.0 mph 95 % 0.00 in
04:02 66.9 °F 65.5 °F 29.89 in West 1.0 mph 8.0 mph 95 % 0.00 in
04:07 66.7 °F 65.3 °F 29.90 in SSW 1.0 mph 6.0 mph 95 % 0.00 in
04:12 66.6 °F 65.1 °F 29.90 in WSW 6.0 mph 6.0 mph 95 % 0.00 in
04:17 66.2 °F 64.4 °F 29.91 in WNW 4.0 mph 11.0 mph 94 % 0.00 in
04:22 65.5 °F 61.2 °F 29.90 in WNW 1.0 mph 11.0 mph 86 % 0.00 in
04:27 64.9 °F 58.6 °F 29.90 in WNW 2.0 mph 11.0 mph 80 % 0.00 in
04:32 64.6 °F 55.0 °F 29.91 in NW 4.0 mph 8.0 mph 71 % 0.00 in
04:37 64.2 °F 53.8 °F 29.91 in West 3.0 mph 8.0 mph 69 % 0.00 in
04:42 63.9 °F 54.0 °F 29.91 in Calm   8.0 mph 70 % 0.00 in
04:47 63.3 °F 54.1 °F 29.91 in WNW 1.0 mph 8.0 mph 72 % 0.00 in
04:57 62.6 °F 54.5 °F 29.91 in Calm   3.0 mph 75 % 0.00 in
05:07 62.1 °F 54.3 °F 29.92 in Calm   3.0 mph 76 % 0.00 in
05:13 61.9 °F 54.3 °F 29.92 in Calm   2.0 mph 76 % 0.00 in
05:18 61.5 °F 53.6 °F 29.93 in NNW 1.0 mph 2.0 mph 75 % 0.00 in
05:23 61.3 °F 53.1 °F 29.93 in Calm   3.0 mph 74 % 0.00 in
05:28 61.3 °F 52.7 °F 29.93 in Calm   3.0 mph 73 % 0.00 in
05:38 61.3 °F 50.4 °F 29.93 in NNW 3.0 mph 5.0 mph 67 % 0.00 in
05:48 61.2 °F 49.3 °F 29.94 in West 3.0 mph 8.0 mph 65 % 0.00 in
05:53 60.6 °F 48.7 °F 29.94 in WNW 1.0 mph 8.0 mph 65 % 0.00 in
05:58 60.4 °F 48.2 °F 29.94 in Calm   5.0 mph 64 % 0.00 in
06:03 60.1 °F 48.2 °F 29.94 in Calm   5.0 mph 65 % 0.00 in
06:08 59.7 °F 47.5 °F 29.95 in Calm   3.0 mph 64 % 0.00 in
06:13 59.4 °F 47.1 °F 29.95 in Calm   3.0 mph 64 % 0.00 in
06:18 59.2 °F 46.2 °F 29.96 in Calm   3.0 mph 62 % 0.00 in
06:23 58.8 °F 45.9 °F 29.96 in West 2.0 mph 3.0 mph 62 % 0.00 in
06:28 58.6 °F 44.8 °F 29.96 in Calm   3.0 mph 60 % 0.00 in
06:33 58.3 °F 44.1 °F 29.96 in West 1.0 mph 3.0 mph 59 % 0.00 in
06:38 57.9 °F 43.7 °F 29.96 in Calm   3.0 mph 59 % 0.00 in
06:43 57.6 °F 43.3 °F 29.96 in Calm   2.0 mph 59 % 0.00 in
06:48 57.0 °F 42.8 °F 29.97 in Calm   3.0 mph 59 % 0.00 in
06:53 57.2 °F 41.7 °F 29.97 in Calm   8.0 mph 56 % 0.00 in
06:58 57.4 °F 40.8 °F 29.97 in Calm   8.0 mph 54 % 0.00 in
07:04 57.6 °F 40.6 °F 29.97 in WNW 1.0 mph 8.0 mph 53 % 0.00 in
07:09 57.4 °F 39.4 °F 29.98 in NNW 2.0 mph 4.0 mph 51 % 0.00 in
07:14 57.4 °F 38.3 °F 29.98 in NNW 2.0 mph 5.0 mph 49 % 0.00 in
07:19 57.4 °F 38.3 °F 29.98 in Calm   5.0 mph 49 % 0.00 in
07:24 57.2 °F 37.2 °F 29.98 in NE 4.0 mph 5.0 mph 47 % 0.00 in
07:29 57.4 °F 37.4 °F 29.99 in NW 4.0 mph 6.0 mph 47 % 0.00 in
07:34 57.4 °F 36.7 °F 29.99 in Calm   8.0 mph 46 % 0.00 in
07:39 57.2 °F 36.7 °F 29.99 in NW 5.0 mph 8.0 mph 46 % 0.00 in
07:44 57.0 °F 36.0 °F 29.99 in NW 2.0 mph 8.0 mph 45 % 0.00 in
07:59 57.2 °F 36.0 °F 30.00 in NW 3.0 mph 6.0 mph 45 % 0.00 in
08:14 57.4 °F 35.1 °F 30.01 in NW 3.0 mph 7.0 mph 43 % 0.00 in
08:19 57.6 °F 35.2 °F 30.01 in NW 6.0 mph 9.0 mph 43 % 0.00 in
08:24 57.6 °F 34.7 °F 30.01 in NW 4.0 mph 10.0 mph 42 % 0.00 in
08:29 57.6 °F 35.2 °F 30.02 in NNW 2.0 mph 10.0 mph 43 % 0.00 in
08:34 57.7 °F 34.2 °F 30.02 in NW 5.0 mph 10.0 mph 41 % 0.00 in
08:39 57.9 °F 34.9 °F 30.02 in NNE 2.0 mph 14.0 mph 42 % 0.00 in
08:49 58.1 °F 35.1 °F 30.03 in NW 2.0 mph 14.0 mph 42 % 0.00 in
08:54 58.3 °F 34.0 °F 30.03 in NNW 3.0 mph 10.0 mph 40 % 0.00 in
08:59 58.1 °F 33.3 °F 30.03 in NNW 6.0 mph 10.0 mph 39 % 0.00 in
09:05 58.3 °F 34.7 °F 30.03 in NNW 2.0 mph 11.0 mph 41 % 0.00 in
09:10 58.6 °F 35.1 °F 30.04 in North 6.0 mph 11.0 mph 41 % 0.00 in
09:15 58.8 °F 34.0 °F 30.04 in NNW 6.0 mph 11.0 mph 39 % 0.00 in
09:20 58.8 °F 33.3 °F 30.04 in WNW 11.0 mph 11.0 mph 38 % 0.00 in
09:25 58.6 °F 32.4 °F 30.04 in North 6.0 mph 11.0 mph 37 % 0.00 in
09:30 58.6 °F 32.4 °F 30.04 in NW 6.0 mph 12.0 mph 37 % 0.00 in
09:35 58.6 °F 32.4 °F 30.05 in NW 3.0 mph 14.0 mph 37 % 0.00 in
09:40 58.6 °F 33.8 °F 30.05 in WSW 11.0 mph 14.0 mph 39 % 0.00 in
09:45 58.8 °F 33.3 °F 30.05 in WSW 11.0 mph 17.0 mph 38 % 0.00 in
09:50 58.6 °F 33.1 °F 30.05 in West 1.0 mph 17.0 mph 38 % 0.00 in
09:55 58.8 °F 33.3 °F 30.06 in NW 5.0 mph 17.0 mph 38 % 0.00 in
10:00 59.2 °F 33.6 °F 30.06 in West 6.0 mph 14.0 mph 38 % 0.00 in
10:05 59.2 °F 33.6 °F 30.06 in West 2.0 mph 14.0 mph 38 % 0.00 in
10:10 59.7 °F 34.7 °F 30.06 in NNW 3.0 mph 12.0 mph 39 % 0.00 in
10:15 60.3 °F 35.8 °F 30.06 in NNW 5.0 mph 10.0 mph 40 % 0.00 in
10:20 60.3 °F 34.5 °F 30.06 in NW 5.0 mph 16.0 mph 38 % 0.00 in
10:25 60.1 °F 35.1 °F 30.07 in NW 8.0 mph 16.0 mph 39 % 0.00 in
10:30 59.9 °F 35.6 °F 30.07 in NW 4.0 mph 16.0 mph 40 % 0.00 in
10:35 60.4 °F 35.4 °F 30.07 in North 2.0 mph 13.0 mph 39 % 0.00 in
10:40 60.3 °F 35.2 °F 30.07 in NNW 7.0 mph 14.0 mph 39 % 0.00 in
10:45 60.1 °F 35.6 °F 30.07 in NW 4.0 mph 15.0 mph 40 % 0.00 in
10:50 60.1 °F 35.1 °F 30.07 in WNW 10.0 mph 16.0 mph 39 % 0.00 in
10:55 59.9 °F 34.9 °F 30.07 in NNW 7.0 mph 16.0 mph 39 % 0.00 in
11:00 60.1 °F 35.6 °F 30.07 in WNW 8.0 mph 16.0 mph 40 % 0.00 in
11:05 60.3 °F 35.8 °F 30.07 in NW 3.0 mph 15.0 mph 40 % 0.00 in
11:10 60.3 °F 35.2 °F 30.07 in NW 10.0 mph 14.0 mph 39 % 0.00 in
11:15 60.3 °F 35.8 °F 30.07 in NW 12.0 mph 14.0 mph 40 % 0.00 in
11:20 60.4 °F 34.7 °F 30.07 in NW 9.0 mph 16.0 mph 38 % 0.00 in
11:26 60.3 °F 35.2 °F 30.07 in North 6.0 mph 18.0 mph 39 % 0.00 in
11:31 60.4 °F 36.0 °F 30.07 in North 6.0 mph 18.0 mph 40 % 0.00 in
11:36 61.0 °F 36.5 °F 30.06 in WNW 2.0 mph 18.0 mph 40 % 0.00 in
11:41 61.7 °F 36.5 °F 30.06 in NNW 7.0 mph 13.0 mph 39 % 0.00 in
11:46 61.9 °F 34.7 °F 30.06 in NNW 7.0 mph 15.0 mph 36 % 0.00 in
11:51 61.9 °F 34.7 °F 30.06 in WNW 4.0 mph 15.0 mph 36 % 0.00 in
11:56 62.1 °F 34.9 °F 30.06 in West 8.0 mph 15.0 mph 36 % 0.00 in
12:01 62.4 °F 35.1 °F 30.06 in NNW 6.0 mph 14.0 mph 36 % 0.00 in
12:06 63.0 °F 34.9 °F 30.06 in NW 8.0 mph 12.0 mph 35 % 0.00 in
12:11 62.4 °F 32.9 °F 30.06 in NW 6.0 mph 12.0 mph 33 % 0.00 in
12:16 62.4 °F 33.6 °F 30.05 in NNW 9.0 mph 13.0 mph 34 % 0.00 in
12:21 62.4 °F 32.9 °F 30.05 in South 4.0 mph 13.0 mph 33 % 0.00 in
12:26 62.4 °F 32.9 °F 30.05 in NW 8.0 mph 15.0 mph 33 % 0.00 in
12:31 62.2 °F 32.0 °F 30.05 in NW 7.0 mph 15.0 mph 32 % 0.00 in
12:36 61.9 °F 31.6 °F 30.04 in NNW 12.0 mph 18.0 mph 32 % 0.00 in
12:41 62.1 °F 32.5 °F 30.04 in NNW 5.0 mph 18.0 mph 33 % 0.00 in
12:46 62.2 °F 32.0 °F 30.04 in WNW 2.0 mph 18.0 mph 32 % 0.00 in
12:51 62.2 °F 32.7 °F 30.03 in WSW 5.0 mph 17.0 mph 33 % 0.00 in
12:56 62.8 °F 32.5 °F 30.03 in NW 5.0 mph 15.0 mph 32 % 0.00 in
13:01 62.6 °F 33.1 °F 30.03 in NW 7.0 mph 15.0 mph 33 % 0.00 in
13:06 62.8 °F 31.6 °F 30.02 in NW 7.0 mph 14.0 mph 31 % 0.00 in
13:11 63.0 °F 32.7 °F 30.02 in NW 5.0 mph 14.0 mph 32 % 0.00 in
13:17 63.3 °F 32.9 °F 30.02 in WNW 7.0 mph 14.0 mph 32 % 0.00 in
13:22 63.1 °F 31.3 °F 30.01 in NW 8.0 mph 18.0 mph 30 % 0.00 in
13:27 63.0 °F 31.1 °F 30.01 in NW 5.0 mph 18.0 mph 30 % 0.00 in
13:32 63.3 °F 32.2 °F 30.01 in NNW 4.0 mph 18.0 mph 31 % 0.00 in
13:37 63.5 °F 32.4 °F 30.01 in NNE 11.0 mph 15.0 mph 31 % 0.00 in
13:42 63.5 °F 30.7 °F 30.01 in NW 9.0 mph 15.0 mph 29 % 0.00 in
13:47 63.7 °F 30.7 °F 30.01 in NNW 7.0 mph 15.0 mph 29 % 0.00 in
13:52 64.0 °F 32.0 °F 30.01 in WNW 9.0 mph 15.0 mph 30 % 0.00 in
13:57 64.0 °F 32.0 °F 30.01 in NNW 5.0 mph 15.0 mph 30 % 0.00 in
14:02 64.2 °F 32.2 °F 30.01 in NNW 3.0 mph 15.0 mph 30 % 0.00 in
14:07 64.4 °F 31.5 °F 30.01 in NW 5.0 mph 15.0 mph 29 % 0.00 in
14:12 64.0 °F 31.1 °F 30.00 in NW 3.0 mph 13.0 mph 29 % 0.00 in
14:17 64.2 °F 30.4 °F 30.01 in NW 4.0 mph 14.0 mph 28 % 0.00 in
14:22 64.6 °F 30.7 °F 30.01 in NW 11.0 mph 14.0 mph 28 % 0.00 in
14:27 64.0 °F 29.3 °F 30.00 in NW 7.0 mph 20.0 mph 27 % 0.00 in
14:32 64.2 °F 30.4 °F 30.01 in WNW 2.0 mph 20.0 mph 28 % 0.00 in
14:37 64.4 °F 29.7 °F 30.00 in WNW 6.0 mph 20.0 mph 27 % 0.00 in
14:42 64.6 °F 30.7 °F 30.00 in SSW 6.0 mph 17.0 mph 28 % 0.00 in
14:47 64.6 °F 30.7 °F 30.00 in WNW 4.0 mph 17.0 mph 28 % 0.00 in
14:52 64.6 °F 30.7 °F 29.99 in NNW 9.0 mph 11.0 mph 28 % 0.00 in
14:57 64.6 °F 30.7 °F 29.99 in WNW 11.0 mph 13.0 mph 28 % 0.00 in
15:02 64.4 °F 30.6 °F 29.99 in NNW 6.0 mph 15.0 mph 28 % 0.00 in
15:07 64.6 °F 28.9 °F 30.00 in NNE 5.0 mph 15.0 mph 26 % 0.00 in
15:12 64.4 °F 28.8 °F 30.00 in WSW 5.0 mph 15.0 mph 26 % 0.00 in
15:17 64.6 °F 29.8 °F 30.00 in WNW 3.0 mph 15.0 mph 27 % 0.00 in
15:22 64.6 °F 30.7 °F 30.00 in NW 2.0 mph 15.0 mph 28 % 0.00 in
15:27 64.6 °F 30.7 °F 30.00 in NW 11.0 mph 13.0 mph 28 % 0.00 in
15:32 64.2 °F 29.5 °F 30.00 in NW 4.0 mph 14.0 mph 27 % 0.00 in
15:37 64.0 °F 30.2 °F 30.01 in WNW 5.0 mph 15.0 mph 28 % 0.00 in
15:42 63.9 °F 30.2 °F 30.01 in NW 6.0 mph 19.0 mph 28 % 0.00 in
15:47 63.9 °F 30.9 °F 30.01 in NW 5.0 mph 19.0 mph 29 % 0.00 in
15:52 63.9 °F 30.2 °F 30.01 in West 10.0 mph 19.0 mph 28 % 0.00 in
15:57 63.9 °F 30.9 °F 30.01 in NW 2.0 mph 12.0 mph 29 % 0.00 in
16:02 63.9 °F 30.9 °F 30.01 in WNW 4.0 mph 13.0 mph 29 % 0.00 in
16:07 63.7 °F 30.7 °F 30.01 in West 3.0 mph 13.0 mph 29 % 0.00 in
16:12 63.7 °F 30.7 °F 30.01 in NW 7.0 mph 13.0 mph 29 % 0.00 in
16:17 63.3 °F 30.6 °F 30.02 in WNW 2.0 mph 12.0 mph 29 % 0.00 in
16:22 63.3 °F 30.6 °F 30.02 in NNW 8.0 mph 12.0 mph 29 % 0.00 in
16:27 63.1 °F 30.4 °F 30.02 in NW 8.0 mph 12.0 mph 29 % 0.00 in
16:32 63.0 °F 30.2 °F 30.02 in NNW 3.0 mph 16.0 mph 29 % 0.00 in
16:37 62.8 °F 30.0 °F 30.03 in NW 5.0 mph 16.0 mph 29 % 0.00 in
16:42 62.6 °F 30.7 °F 30.03 in NW 6.0 mph 17.0 mph 30 % 0.00 in
16:47 62.4 °F 30.6 °F 30.03 in NW 5.0 mph 17.0 mph 30 % 0.00 in
16:52 62.4 °F 30.6 °F 30.04 in NNW 12.0 mph 17.0 mph 30 % 0.00 in
16:57 62.2 °F 31.3 °F 30.04 in NNW 4.0 mph 15.0 mph 31 % 0.00 in
17:02 62.1 °F 31.1 °F 30.04 in NW 5.0 mph 15.0 mph 31 % 0.00 in
17:07 61.9 °F 30.9 °F 30.04 in NNW 4.0 mph 15.0 mph 31 % 0.00 in
17:12 61.5 °F 30.6 °F 30.04 in WNW 4.0 mph 15.0 mph 31 % 0.00 in
17:17 61.3 °F 31.3 °F 30.04 in WNW 4.0 mph 13.0 mph 32 % 0.00 in
17:22 61.3 °F 30.4 °F 30.04 in NNW 9.0 mph 17.0 mph 31 % 0.00 in
17:27 61.0 °F 30.9 °F 30.04 in NW 3.0 mph 17.0 mph 32 % 0.00 in
17:32 60.8 °F 31.5 °F 30.04 in Calm   17.0 mph 33 % 0.00 in
17:37 60.6 °F 31.3 °F 30.05 in WNW 5.0 mph 13.0 mph 33 % 0.00 in
17:42 60.4 °F 31.3 °F 30.05 in NNW 3.0 mph 13.0 mph 33 % 0.00 in
17:47 60.1 °F 31.6 °F 30.05 in NW 3.0 mph 13.0 mph 34 % 0.00 in
17:52 59.7 °F 31.3 °F 30.05 in NNW 2.0 mph 7.0 mph 34 % 0.00 in
17:57 59.5 °F 31.8 °F 30.05 in NW 2.0 mph 7.0 mph 35 % 0.00 in
18:02 59.4 °F 31.6 °F 30.05 in WNW 1.0 mph 6.0 mph 35 % 0.00 in
18:07 59.0 °F 31.5 °F 30.06 in NW 1.0 mph 6.0 mph 35 % 0.00 in
18:12 58.8 °F 32.0 °F 30.06 in NNE 1.0 mph 4.0 mph 36 % 0.00 in
18:17 58.5 °F 31.6 °F 30.06 in NNW 1.0 mph 4.0 mph 36 % 0.00 in
18:22 58.1 °F 32.0 °F 30.06 in North 1.0 mph 4.0 mph 37 % 0.00 in
18:27 57.6 °F 31.5 °F 30.06 in Calm   4.0 mph 37 % 0.00 in
18:32 57.0 °F 31.6 °F 30.06 in Calm   3.0 mph 38 % 0.00 in
18:37 56.3 °F 31.6 °F 30.06 in Calm   2.0 mph 39 % 0.00 in
18:42 55.6 °F 31.6 °F 30.07 in Calm   2.0 mph 40 % 0.00 in
18:47 54.7 °F 32.0 °F 30.07 in Calm     42 % 0.00 in
18:57 53.1 °F 32.9 °F 30.08 in Calm     46 % 0.00 in
19:02 52.3 °F 33.3 °F 30.08 in Calm     48 % 0.00 in
19:07 52.0 °F 33.4 °F 30.08 in Calm     49 % 0.00 in
19:12 51.3 °F 32.7 °F 30.08 in Calm     49 % 0.00 in
19:17 50.4 °F 32.4 °F 30.08 in Calm     50 % 0.00 in
19:22 49.5 °F 32.5 °F 30.08 in Calm     52 % 0.00 in
19:27 48.7 °F 32.9 °F 30.09 in Calm     54 % 0.00 in
19:37 48.0 °F 34.3 °F 30.09 in Calm     59 % 0.00 in
19:42 47.8 °F 34.7 °F 30.09 in Calm     60 % 0.00 in
19:47 47.8 °F 35.4 °F 30.09 in Calm     62 % 0.00 in
19:52 48.0 °F 35.6 °F 30.09 in Calm     62 % 0.00 in
19:57 47.7 °F 34.9 °F 30.09 in Calm     61 % 0.00 in
20:02 46.9 °F 34.5 °F 30.09 in Calm     62 % 0.00 in
20:07 46.8 °F 35.6 °F 30.09 in Calm     65 % 0.00 in
20:12 46.8 °F 36.0 °F 30.09 in Calm     66 % 0.00 in
20:17 46.6 °F 35.4 °F 30.09 in Calm     65 % 0.00 in
20:22 46.0 °F 34.9 °F 30.09 in Calm     65 % 0.00 in
20:27 45.5 °F 34.3 °F 30.09 in Calm     65 % 0.00 in
20:32 45.0 °F 34.3 °F 30.10 in Calm     66 % 0.00 in
20:37 44.6 °F 35.1 °F 30.09 in Calm     69 % 0.00 in
20:42 45.1 °F 36.3 °F 30.09 in Calm     71 % 0.00 in
20:47 45.5 °F 36.3 °F 30.09 in Calm     70 % 0.00 in
20:52 45.3 °F 35.8 °F 30.10 in Calm     69 % 0.00 in
20:57 45.1 °F 35.6 °F 30.10 in Calm     69 % 0.00 in
21:07 44.4 °F 34.5 °F 30.10 in Calm     68 % 0.00 in
21:12 44.1 °F 34.2 °F 30.11 in Calm     68 % 0.00 in
21:17 43.9 °F 34.3 °F 30.11 in Calm     69 % 0.00 in
21:22 44.1 °F 34.5 °F 30.11 in Calm     69 % 0.00 in
21:27 44.4 °F 35.2 °F 30.11 in Calm     70 % 0.00 in
21:32 44.8 °F 35.2 °F 30.12 in Calm     69 % 0.00 in
21:37 45.1 °F 35.6 °F 30.12 in Calm     69 % 0.00 in
21:42 45.3 °F 35.4 °F 30.12 in Calm     68 % 0.00 in
21:47 45.1 °F 34.9 °F 30.12 in Calm     67 % 0.00 in
21:52 45.0 °F 35.1 °F 30.12 in Calm     68 % 0.00 in
22:02 44.4 °F 35.6 °F 30.12 in Calm     71 % 0.00 in
22:07 44.4 °F 36.0 °F 30.13 in Calm     72 % 0.00 in
22:12 44.1 °F 35.6 °F 30.12 in Calm     72 % 0.00 in
22:17 43.9 °F 35.8 °F 30.12 in Calm     73 % 0.00 in
22:22 43.5 °F 35.1 °F 30.12 in Calm     72 % 0.00 in
22:32 43.2 °F 35.4 °F 30.13 in Calm     74 % 0.00 in
22:37 43.2 °F 35.4 °F 30.13 in Calm     74 % 0.00 in
22:42 43.2 °F 35.4 °F 30.13 in Calm     74 % 0.00 in
22:47 43.0 °F 35.2 °F 30.14 in Calm     74 % 0.00 in
22:52 42.6 °F 34.9 °F 30.14 in Calm     74 % 0.00 in
22:57 42.4 °F 34.7 °F 30.14 in Calm     74 % 0.00 in
23:07 42.4 °F 35.1 °F 30.15 in Calm     75 % 0.00 in
23:17 42.1 °F 34.7 °F 30.15 in Calm   1.0 mph 75 % 0.00 in
23:22 41.9 °F 35.2 °F 30.15 in Calm   1.0 mph 77 % 0.00 in
23:27 42.1 °F 35.4 °F 30.15 in Calm   1.0 mph 77 % 0.00 in
23:32 41.7 °F 34.7 °F 30.15 in Calm   1.0 mph 76 % 0.00 in
23:37 41.5 °F 34.5 °F 30.15 in Calm   1.0 mph 76 % 0.00 in
23:42 41.2 °F 34.9 °F 30.15 in Calm   1.0 mph 78 % 0.00 in
23:47 41.0 °F 34.7 °F 30.15 in Calm     78 % 0.00 in
23:52 40.8 °F 34.9 °F 30.15 in Calm     79 % 0.00 in
23:57 40.8 °F 35.1 °F 30.15 in Calm   1.0 mph 80 % 0.00 in
Spring, Texas: Villages of Bridgestone
Compliments of Weather Underground - 2.75 mb

Script developed by  Jim McMurry - jmcmurry@mwt.net Adapted for the template by  Wim van der Kuil - Leuven-Template.eu

You find our weather info also at:

UK Metoffice

WeatherCloud

Weather Underground

Mid-South Weather Network

AWEKAS

Citizen Weather Observer Program (CWOP)

HAMweather, WeatherForYou, PWS Weather

Equipment we use:

Weather-station
Davis Vantage Vue

Weather-program
Meteohub

Weather-server
Debian 7.9 x86 (Guest)

Provider
DreamHost

Davis Vantage Vue

Meteohub

Debian 7.9 x86 (Guest)

DreamHost